sensor_id;sensor_type;location;lat;lon;timestamp;P1;durP1;ratioP1;P2;durP2;ratioP2
2099;SDS011;1055;48.854;9.302;2023-02-28T00:01:30;7.18;;;3.03;;
2099;SDS011;1055;48.854;9.302;2023-02-28T00:03:57;7.35;;;3.10;;
2099;SDS011;1055;48.854;9.302;2023-02-28T00:06:27;8.43;;;3.55;;
2099;SDS011;1055;48.854;9.302;2023-02-28T00:08:54;7.13;;;3.05;;
2099;SDS011;1055;48.854;9.302;2023-02-28T00:11:20;8.33;;;3.10;;
2099;SDS011;1055;48.854;9.302;2023-02-28T00:13:49;7.40;;;3.85;;
2099;SDS011;1055;48.854;9.302;2023-02-28T00:16:18;7.55;;;3.50;;
2099;SDS011;1055;48.854;9.302;2023-02-28T00:18:48;7.80;;;3.45;;
2099;SDS011;1055;48.854;9.302;2023-02-28T00:21:15;8.52;;;3.65;;
2099;SDS011;1055;48.854;9.302;2023-02-28T00:23:43;6.90;;;3.10;;
2099;SDS011;1055;48.854;9.302;2023-02-28T00:26:11;7.68;;;3.30;;
2099;SDS011;1055;48.854;9.302;2023-02-28T00:28:37;7.97;;;3.80;;
2099;SDS011;1055;48.854;9.302;2023-02-28T00:31:03;7.10;;;3.22;;
2099;SDS011;1055;48.854;9.302;2023-02-28T00:33:31;7.68;;;3.80;;
2099;SDS011;1055;48.854;9.302;2023-02-28T00:36:03;8.50;;;3.60;;
2099;SDS011;1055;48.854;9.302;2023-02-28T00:38:31;6.70;;;3.63;;
2099;SDS011;1055;48.854;9.302;2023-02-28T00:41:01;7.78;;;3.35;;
2099;SDS011;1055;48.854;9.302;2023-02-28T00:43:31;9.10;;;3.83;;
2099;SDS011;1055;48.854;9.302;2023-02-28T00:45:59;7.55;;;3.10;;
2099;SDS011;1055;48.854;9.302;2023-02-28T00:48:26;8.38;;;4.20;;
2099;SDS011;1055;48.854;9.302;2023-02-28T00:50:58;6.60;;;3.33;;
2099;SDS011;1055;48.854;9.302;2023-02-28T00:53:25;8.40;;;4.13;;
2099;SDS011;1055;48.854;9.302;2023-02-28T00:55:59;9.35;;;3.90;;
2099;SDS011;1055;48.854;9.302;2023-02-28T00:58:26;8.85;;;4.00;;
2099;SDS011;1055;48.854;9.302;2023-02-28T01:00:52;8.95;;;3.80;;
2099;SDS011;1055;48.854;9.302;2023-02-28T01:03:19;6.75;;;3.75;;
2099;SDS011;1055;48.854;9.302;2023-02-28T01:05:45;7.80;;;3.97;;
2099;SDS011;1055;48.854;9.302;2023-02-28T01:08:11;8.80;;;3.90;;
2099;SDS011;1055;48.854;9.302;2023-02-28T01:10:38;9.82;;;4.20;;
2099;SDS011;1055;48.854;9.302;2023-02-28T01:13:04;7.17;;;4.17;;
2099;SDS011;1055;48.854;9.302;2023-02-28T01:15:30;7.28;;;3.83;;
2099;SDS011;1055;48.854;9.302;2023-02-28T01:17:57;10.00;;;4.47;;
2099;SDS011;1055;48.854;9.302;2023-02-28T01:20:23;8.93;;;4.00;;
2099;SDS011;1055;48.854;9.302;2023-02-28T01:22:49;6.93;;;3.65;;
2099;SDS011;1055;48.854;9.302;2023-02-28T01:25:14;9.40;;;4.23;;
2099;SDS011;1055;48.854;9.302;2023-02-28T01:27:40;7.50;;;4.00;;
2099;SDS011;1055;48.854;9.302;2023-02-28T01:30:08;8.83;;;4.30;;
2099;SDS011;1055;48.854;9.302;2023-02-28T01:32:36;9.90;;;4.13;;
2099;SDS011;1055;48.854;9.302;2023-02-28T01:35:01;10.10;;;4.67;;
2099;SDS011;1055;48.854;9.302;2023-02-28T01:37:27;9.60;;;4.30;;
2099;SDS011;1055;48.854;9.302;2023-02-28T01:39:53;8.83;;;4.53;;
2099;SDS011;1055;48.854;9.302;2023-02-28T01:42:18;8.20;;;4.30;;
2099;SDS011;1055;48.854;9.302;2023-02-28T01:47:19;8.50;;;4.38;;
2099;SDS011;1055;48.854;9.302;2023-02-28T01:49:45;8.00;;;4.30;;
2099;SDS011;1055;48.854;9.302;2023-02-28T01:52:12;9.15;;;5.07;;
2099;SDS011;1055;48.854;9.302;2023-02-28T01:54:43;7.72;;;4.32;;
2099;SDS011;1055;48.854;9.302;2023-02-28T01:57:14;8.95;;;5.13;;
2099;SDS011;1055;48.854;9.302;2023-02-28T01:59:45;15.68;;;4.95;;
2099;SDS011;1055;48.854;9.302;2023-02-28T02:02:17;11.77;;;4.20;;
2099;SDS011;1055;48.854;9.302;2023-02-28T02:04:55;8.18;;;4.15;;
2099;SDS011;1055;48.854;9.302;2023-02-28T02:07:29;8.45;;;4.30;;
2099;SDS011;1055;48.854;9.302;2023-02-28T02:10:13;8.82;;;4.50;;
2099;SDS011;1055;48.854;9.302;2023-02-28T02:15:12;7.88;;;4.60;;
2099;SDS011;1055;48.854;9.302;2023-02-28T02:17:48;9.27;;;5.22;;
2099;SDS011;1055;48.854;9.302;2023-02-28T02:31:32;8.85;;;4.20;;
2099;SDS011;1055;48.854;9.302;2023-02-28T02:34:24;8.00;;;4.10;;
2099;SDS011;1055;48.854;9.302;2023-02-28T02:37:10;9.18;;;4.72;;
2099;SDS011;1055;48.854;9.302;2023-02-28T02:42:53;10.10;;;4.95;;
2099;SDS011;1055;48.854;9.302;2023-02-28T02:45:45;9.43;;;5.47;;
2099;SDS011;1055;48.854;9.302;2023-02-28T02:48:19;10.10;;;5.22;;
2099;SDS011;1055;48.854;9.302;2023-02-28T02:50:48;11.30;;;5.88;;
2099;SDS011;1055;48.854;9.302;2023-02-28T02:53:18;8.98;;;4.25;;
2099;SDS011;1055;48.854;9.302;2023-02-28T02:55:50;8.50;;;5.10;;
2099;SDS011;1055;48.854;9.302;2023-02-28T02:58:20;8.57;;;5.18;;
2099;SDS011;1055;48.854;9.302;2023-02-28T03:00:51;8.60;;;4.82;;
2099;SDS011;1055;48.854;9.302;2023-02-28T03:03:20;10.15;;;5.07;;
2099;SDS011;1055;48.854;9.302;2023-02-28T03:05:54;10.70;;;5.40;;
2099;SDS011;1055;48.854;9.302;2023-02-28T03:08:24;8.18;;;4.95;;
2099;SDS011;1055;48.854;9.302;2023-02-28T03:10:51;10.52;;;6.10;;
2099;SDS011;1055;48.854;9.302;2023-02-28T03:16:15;10.07;;;5.00;;
2099;SDS011;1055;48.854;9.302;2023-02-28T03:21:43;11.07;;;5.60;;
2099;SDS011;1055;48.854;9.302;2023-02-28T03:27:27;10.32;;;5.25;;
2099;SDS011;1055;48.854;9.302;2023-02-28T03:30:03;12.73;;;6.32;;
2099;SDS011;1055;48.854;9.302;2023-02-28T03:32:35;10.90;;;5.53;;
2099;SDS011;1055;48.854;9.302;2023-02-28T03:35:16;10.85;;;5.30;;
2099;SDS011;1055;48.854;9.302;2023-02-28T03:37:46;10.55;;;6.30;;
2099;SDS011;1055;48.854;9.302;2023-02-28T03:40:18;10.25;;;5.32;;
2099;SDS011;1055;48.854;9.302;2023-02-28T03:42:47;9.75;;;5.82;;
2099;SDS011;1055;48.854;9.302;2023-02-28T03:45:18;10.90;;;5.57;;
2099;SDS011;1055;48.854;9.302;2023-02-28T03:47:54;10.80;;;5.30;;
2099;SDS011;1055;48.854;9.302;2023-02-28T03:50:41;10.20;;;5.40;;
2099;SDS011;1055;48.854;9.302;2023-02-28T03:53:17;11.80;;;5.57;;
2099;SDS011;1055;48.854;9.302;2023-02-28T03:55:48;10.95;;;6.35;;
2099;SDS011;1055;48.854;9.302;2023-02-28T04:01:23;10.90;;;6.05;;
2099;SDS011;1055;48.854;9.302;2023-02-28T04:03:52;9.23;;;5.97;;
2099;SDS011;1055;48.854;9.302;2023-02-28T04:06:19;10.30;;;5.40;;
2099;SDS011;1055;48.854;9.302;2023-02-28T04:08:46;10.18;;;5.95;;
2099;SDS011;1055;48.854;9.302;2023-02-28T04:13:41;11.18;;;5.90;;
2099;SDS011;1055;48.854;9.302;2023-02-28T04:16:08;10.68;;;6.00;;
2099;SDS011;1055;48.854;9.302;2023-02-28T04:18:37;11.93;;;5.65;;
2099;SDS011;1055;48.854;9.302;2023-02-28T04:21:06;12.43;;;5.55;;
2099;SDS011;1055;48.854;9.302;2023-02-28T04:23:32;11.10;;;5.72;;
2099;SDS011;1055;48.854;9.302;2023-02-28T04:25:58;12.68;;;6.07;;
2099;SDS011;1055;48.854;9.302;2023-02-28T04:28:24;9.93;;;5.70;;
2099;SDS011;1055;48.854;9.302;2023-02-28T04:31:00;11.57;;;5.87;;
2099;SDS011;1055;48.854;9.302;2023-02-28T04:33:28;10.77;;;5.90;;
2099;SDS011;1055;48.854;9.302;2023-02-28T04:36:01;10.98;;;6.28;;
2099;SDS011;1055;48.854;9.302;2023-02-28T04:38:32;25.70;;;8.95;;
2099;SDS011;1055;48.854;9.302;2023-02-28T04:41:02;13.35;;;6.40;;
2099;SDS011;1055;48.854;9.302;2023-02-28T04:43:28;11.90;;;5.70;;
2099;SDS011;1055;48.854;9.302;2023-02-28T04:45:54;12.70;;;6.43;;
2099;SDS011;1055;48.854;9.302;2023-02-28T04:48:24;12.68;;;5.82;;
2099;SDS011;1055;48.854;9.302;2023-02-28T04:50:52;11.13;;;6.57;;
2099;SDS011;1055;48.854;9.302;2023-02-28T04:53:17;11.07;;;6.10;;
2099;SDS011;1055;48.854;9.302;2023-02-28T04:55:43;10.25;;;4.95;;
2099;SDS011;1055;48.854;9.302;2023-02-28T04:58:09;10.43;;;6.10;;
2099;SDS011;1055;48.854;9.302;2023-02-28T05:00:35;11.97;;;6.27;;
2099;SDS011;1055;48.854;9.302;2023-02-28T05:03:01;10.52;;;5.90;;
2099;SDS011;1055;48.854;9.302;2023-02-28T05:05:27;10.33;;;5.57;;
2099;SDS011;1055;48.854;9.302;2023-02-28T05:07:53;11.17;;;6.30;;
2099;SDS011;1055;48.854;9.302;2023-02-28T05:10:20;13.05;;;6.13;;
2099;SDS011;1055;48.854;9.302;2023-02-28T05:12:47;13.73;;;6.43;;
2099;SDS011;1055;48.854;9.302;2023-02-28T05:15:13;11.37;;;5.80;;
2099;SDS011;1055;48.854;9.302;2023-02-28T05:17:39;9.50;;;5.43;;
2099;SDS011;1055;48.854;9.302;2023-02-28T05:20:05;10.37;;;6.13;;
2099;SDS011;1055;48.854;9.302;2023-02-28T05:22:32;15.07;;;6.75;;
2099;SDS011;1055;48.854;9.302;2023-02-28T05:24:57;10.53;;;6.27;;
2099;SDS011;1055;48.854;9.302;2023-02-28T05:27:23;11.90;;;6.90;;
2099;SDS011;1055;48.854;9.302;2023-02-28T05:29:49;15.10;;;6.30;;
2099;SDS011;1055;48.854;9.302;2023-02-28T05:32:14;12.03;;;6.10;;
2099;SDS011;1055;48.854;9.302;2023-02-28T05:34:40;13.33;;;6.90;;
2099;SDS011;1055;48.854;9.302;2023-02-28T05:37:10;13.68;;;6.78;;
2099;SDS011;1055;48.854;9.302;2023-02-28T05:39:37;13.40;;;7.13;;
2099;SDS011;1055;48.854;9.302;2023-02-28T05:42:03;9.80;;;5.43;;
2099;SDS011;1055;48.854;9.302;2023-02-28T05:44:30;12.63;;;6.75;;
2099;SDS011;1055;48.854;9.302;2023-02-28T05:46:55;12.50;;;8.00;;
2099;SDS011;1055;48.854;9.302;2023-02-28T05:49:21;11.17;;;6.53;;
2099;SDS011;1055;48.854;9.302;2023-02-28T05:51:47;10.90;;;6.50;;
2099;SDS011;1055;48.854;9.302;2023-02-28T05:54:12;11.90;;;5.97;;
2099;SDS011;1055;48.854;9.302;2023-02-28T05:56:38;11.53;;;6.17;;
2099;SDS011;1055;48.854;9.302;2023-02-28T05:59:05;13.75;;;7.25;;
2099;SDS011;1055;48.854;9.302;2023-02-28T06:01:33;13.18;;;7.28;;
2099;SDS011;1055;48.854;9.302;2023-02-28T06:04:01;12.60;;;7.00;;
2099;SDS011;1055;48.854;9.302;2023-02-28T06:06:28;11.30;;;5.88;;
2099;SDS011;1055;48.854;9.302;2023-02-28T06:08:55;10.87;;;6.43;;
2099;SDS011;1055;48.854;9.302;2023-02-28T06:11:21;11.93;;;7.03;;
2099;SDS011;1055;48.854;9.302;2023-02-28T06:13:52;14.93;;;7.45;;
2099;SDS011;1055;48.854;9.302;2023-02-28T06:16:19;12.27;;;7.60;;
2099;SDS011;1055;48.854;9.302;2023-02-28T06:18:45;11.70;;;6.93;;
2099;SDS011;1055;48.854;9.302;2023-02-28T06:21:11;11.60;;;6.50;;
2099;SDS011;1055;48.854;9.302;2023-02-28T06:23:37;14.20;;;6.78;;
2099;SDS011;1055;48.854;9.302;2023-02-28T06:26:03;12.03;;;6.97;;
2099;SDS011;1055;48.854;9.302;2023-02-28T06:28:29;12.07;;;7.10;;
2099;SDS011;1055;48.854;9.302;2023-02-28T06:30:54;13.03;;;7.83;;
2099;SDS011;1055;48.854;9.302;2023-02-28T06:33:20;15.43;;;6.60;;
2099;SDS011;1055;48.854;9.302;2023-02-28T06:35:46;10.37;;;6.60;;
2099;SDS011;1055;48.854;9.302;2023-02-28T06:38:15;13.73;;;7.97;;
2099;SDS011;1055;48.854;9.302;2023-02-28T06:40:40;13.43;;;7.03;;
2099;SDS011;1055;48.854;9.302;2023-02-28T06:43:06;12.00;;;7.47;;
2099;SDS011;1055;48.854;9.302;2023-02-28T06:45:32;12.53;;;6.60;;
2099;SDS011;1055;48.854;9.302;2023-02-28T06:47:58;11.87;;;6.60;;
2099;SDS011;1055;48.854;9.302;2023-02-28T06:50:25;11.48;;;6.80;;
2099;SDS011;1055;48.854;9.302;2023-02-28T06:52:52;14.20;;;6.85;;
2099;SDS011;1055;48.854;9.302;2023-02-28T06:55:19;12.63;;;7.07;;
2099;SDS011;1055;48.854;9.302;2023-02-28T06:57:44;11.70;;;7.07;;
2099;SDS011;1055;48.854;9.302;2023-02-28T07:00:10;14.40;;;8.10;;
2099;SDS011;1055;48.854;9.302;2023-02-28T07:02:37;13.10;;;7.57;;
2099;SDS011;1055;48.854;9.302;2023-02-28T07:05:03;13.48;;;7.20;;
2099;SDS011;1055;48.854;9.302;2023-02-28T07:07:32;12.75;;;7.00;;
2099;SDS011;1055;48.854;9.302;2023-02-28T07:09:58;13.02;;;7.00;;
2099;SDS011;1055;48.854;9.302;2023-02-28T07:12:24;12.40;;;8.13;;
2099;SDS011;1055;48.854;9.302;2023-02-28T07:14:49;14.23;;;8.00;;
2099;SDS011;1055;48.854;9.302;2023-02-28T07:17:15;14.30;;;8.17;;
2099;SDS011;1055;48.854;9.302;2023-02-28T07:19:40;13.57;;;7.73;;
2099;SDS011;1055;48.854;9.302;2023-02-28T07:22:06;11.30;;;6.60;;
2099;SDS011;1055;48.854;9.302;2023-02-28T07:24:32;13.20;;;7.20;;
2099;SDS011;1055;48.854;9.302;2023-02-28T07:26:58;13.68;;;7.30;;
2099;SDS011;1055;48.854;9.302;2023-02-28T07:29:24;12.65;;;6.90;;
2099;SDS011;1055;48.854;9.302;2023-02-28T07:31:50;17.60;;;7.43;;
2099;SDS011;1055;48.854;9.302;2023-02-28T07:34:18;13.55;;;7.50;;
2099;SDS011;1055;48.854;9.302;2023-02-28T07:36:44;14.70;;;8.13;;
2099;SDS011;1055;48.854;9.302;2023-02-28T07:39:09;14.37;;;7.20;;
2099;SDS011;1055;48.854;9.302;2023-02-28T07:41:35;13.97;;;7.43;;
2099;SDS011;1055;48.854;9.302;2023-02-28T07:44:08;13.98;;;8.00;;
2099;SDS011;1055;48.854;9.302;2023-02-28T07:46:34;13.68;;;7.20;;
2099;SDS011;1055;48.854;9.302;2023-02-28T07:49:01;13.95;;;8.02;;
2099;SDS011;1055;48.854;9.302;2023-02-28T07:51:28;13.77;;;7.30;;
2099;SDS011;1055;48.854;9.302;2023-02-28T07:53:54;14.60;;;8.30;;
2099;SDS011;1055;48.854;9.302;2023-02-28T07:56:20;13.50;;;7.73;;
2099;SDS011;1055;48.854;9.302;2023-02-28T07:58:46;12.27;;;7.30;;
2099;SDS011;1055;48.854;9.302;2023-02-28T08:01:11;18.40;;;10.10;;
2099;SDS011;1055;48.854;9.302;2023-02-28T08:03:38;13.90;;;8.63;;
2099;SDS011;1055;48.854;9.302;2023-02-28T08:06:05;14.65;;;8.32;;
2099;SDS011;1055;48.854;9.302;2023-02-28T08:08:32;17.95;;;8.38;;
2099;SDS011;1055;48.854;9.302;2023-02-28T08:11:01;15.13;;;8.90;;
2099;SDS011;1055;48.854;9.302;2023-02-28T08:13:28;14.65;;;9.25;;
2099;SDS011;1055;48.854;9.302;2023-02-28T08:15:55;16.08;;;8.95;;
2099;SDS011;1055;48.854;9.302;2023-02-28T08:18:21;15.38;;;8.77;;
2099;SDS011;1055;48.854;9.302;2023-02-28T08:20:47;16.65;;;8.85;;
2099;SDS011;1055;48.854;9.302;2023-02-28T08:23:13;16.57;;;10.57;;
2099;SDS011;1055;48.854;9.302;2023-02-28T08:25:39;15.20;;;9.00;;
2099;SDS011;1055;48.854;9.302;2023-02-28T08:28:04;17.57;;;9.40;;
2099;SDS011;1055;48.854;9.302;2023-02-28T08:30:30;15.37;;;8.00;;
2099;SDS011;1055;48.854;9.302;2023-02-28T08:32:56;21.33;;;11.10;;
2099;SDS011;1055;48.854;9.302;2023-02-28T08:35:22;16.73;;;10.43;;
2099;SDS011;1055;48.854;9.302;2023-02-28T08:37:48;15.43;;;8.93;;
2099;SDS011;1055;48.854;9.302;2023-02-28T08:40:14;16.45;;;10.00;;
2099;SDS011;1055;48.854;9.302;2023-02-28T08:42:45;16.05;;;9.20;;
2099;SDS011;1055;48.854;9.302;2023-02-28T08:45:12;18.70;;;11.48;;
2099;SDS011;1055;48.854;9.302;2023-02-28T08:47:39;21.80;;;9.68;;
2099;SDS011;1055;48.854;9.302;2023-02-28T08:50:05;16.58;;;9.90;;
2099;SDS011;1055;48.854;9.302;2023-02-28T08:52:31;16.70;;;9.48;;
2099;SDS011;1055;48.854;9.302;2023-02-28T08:54:57;14.97;;;9.40;;
2099;SDS011;1055;48.854;9.302;2023-02-28T08:57:23;18.13;;;10.02;;
2099;SDS011;1055;48.854;9.302;2023-02-28T08:59:51;16.50;;;9.82;;
2099;SDS011;1055;48.854;9.302;2023-02-28T09:02:17;18.50;;;9.53;;
2099;SDS011;1055;48.854;9.302;2023-02-28T09:04:42;13.67;;;9.10;;
2099;SDS011;1055;48.854;9.302;2023-02-28T09:07:10;18.48;;;10.23;;
2099;SDS011;1055;48.854;9.302;2023-02-28T09:09:36;16.77;;;9.05;;
2099;SDS011;1055;48.854;9.302;2023-02-28T09:12:02;15.20;;;9.60;;
2099;SDS011;1055;48.854;9.302;2023-02-28T09:14:28;15.43;;;8.27;;
2099;SDS011;1055;48.854;9.302;2023-02-28T09:16:54;19.30;;;10.40;;
2099;SDS011;1055;48.854;9.302;2023-02-28T09:19:20;20.57;;;10.13;;
2099;SDS011;1055;48.854;9.302;2023-02-28T09:21:45;17.43;;;9.77;;
2099;SDS011;1055;48.854;9.302;2023-02-28T09:24:11;15.87;;;10.00;;
2099;SDS011;1055;48.854;9.302;2023-02-28T09:26:39;15.40;;;8.63;;
2099;SDS011;1055;48.854;9.302;2023-02-28T09:29:05;16.77;;;9.57;;
2099;SDS011;1055;48.854;9.302;2023-02-28T09:31:31;17.15;;;9.55;;
2099;SDS011;1055;48.854;9.302;2023-02-28T09:33:58;15.15;;;10.57;;
2099;SDS011;1055;48.854;9.302;2023-02-28T09:36:25;14.90;;;9.50;;
2099;SDS011;1055;48.854;9.302;2023-02-28T09:38:51;14.55;;;9.65;;
2099;SDS011;1055;48.854;9.302;2023-02-28T09:41:22;17.15;;;10.38;;
2099;SDS011;1055;48.854;9.302;2023-02-28T09:43:52;15.05;;;9.68;;
2099;SDS011;1055;48.854;9.302;2023-02-28T09:49:14;14.75;;;8.80;;
2099;SDS011;1055;48.854;9.302;2023-02-28T09:51:50;14.43;;;9.25;;
2099;SDS011;1055;48.854;9.302;2023-02-28T09:54:20;15.30;;;9.48;;
2099;SDS011;1055;48.854;9.302;2023-02-28T09:56:49;15.32;;;9.45;;
2099;SDS011;1055;48.854;9.302;2023-02-28T10:16:52;16.38;;;9.85;;
2099;SDS011;1055;48.854;9.302;2023-02-28T10:28:38;17.15;;;11.10;;
2099;SDS011;1055;48.854;9.302;2023-02-28T10:31:05;18.88;;;11.05;;
2099;SDS011;1055;48.854;9.302;2023-02-28T10:33:42;15.60;;;11.00;;
2099;SDS011;1055;48.854;9.302;2023-02-28T10:36:10;20.05;;;12.13;;
2099;SDS011;1055;48.854;9.302;2023-02-28T10:38:43;18.15;;;10.80;;
2099;SDS011;1055;48.854;9.302;2023-02-28T10:41:11;15.98;;;11.48;;
2099;SDS011;1055;48.854;9.302;2023-02-28T10:43:39;18.20;;;11.60;;
2099;SDS011;1055;48.854;9.302;2023-02-28T10:51:11;29.30;;;14.95;;
2099;SDS011;1055;48.854;9.302;2023-02-28T10:53:51;16.42;;;10.43;;
2099;SDS011;1055;48.854;9.302;2023-02-28T10:56:23;18.13;;;11.30;;
2099;SDS011;1055;48.854;9.302;2023-02-28T10:58:53;20.90;;;12.20;;
2099;SDS011;1055;48.854;9.302;2023-02-28T11:01:43;18.25;;;11.15;;
2099;SDS011;1055;48.854;9.302;2023-02-28T11:06:47;20.30;;;12.10;;
2099;SDS011;1055;48.854;9.302;2023-02-28T11:11:54;25.13;;;14.27;;
2099;SDS011;1055;48.854;9.302;2023-02-28T11:16:48;28.75;;;15.63;;
2099;SDS011;1055;48.854;9.302;2023-02-28T11:19:25;27.35;;;14.93;;
2099;SDS011;1055;48.854;9.302;2023-02-28T11:21:55;20.25;;;11.95;;
2099;SDS011;1055;48.854;9.302;2023-02-28T11:26:53;34.72;;;17.75;;
2099;SDS011;1055;48.854;9.302;2023-02-28T11:29:21;27.48;;;13.63;;
2099;SDS011;1055;48.854;9.302;2023-02-28T11:32:03;26.08;;;15.57;;
2099;SDS011;1055;48.854;9.302;2023-02-28T11:34:30;17.10;;;11.80;;
2099;SDS011;1055;48.854;9.302;2023-02-28T11:36:57;21.77;;;11.73;;
2099;SDS011;1055;48.854;9.302;2023-02-28T11:39:25;18.23;;;10.85;;
2099;SDS011;1055;48.854;9.302;2023-02-28T11:53:02;24.13;;;14.02;;
2099;SDS011;1055;48.854;9.302;2023-02-28T12:03:42;18.67;;;10.93;;
2099;SDS011;1055;48.854;9.302;2023-02-28T12:06:25;19.25;;;12.05;;
2099;SDS011;1055;48.854;9.302;2023-02-28T12:12:06;15.43;;;10.88;;
2099;SDS011;1055;48.854;9.302;2023-02-28T12:20:17;15.55;;;10.18;;
2099;SDS011;1055;48.854;9.302;2023-02-28T12:28:02;20.27;;;12.30;;
2099;SDS011;1055;48.854;9.302;2023-02-28T12:30:28;18.40;;;11.27;;
2099;SDS011;1055;48.854;9.302;2023-02-28T12:33:16;20.90;;;13.02;;
2099;SDS011;1055;48.854;9.302;2023-02-28T12:38:23;15.88;;;10.80;;
2099;SDS011;1055;48.854;9.302;2023-02-28T12:40:58;13.95;;;9.80;;
2099;SDS011;1055;48.854;9.302;2023-02-28T12:43:32;13.55;;;9.25;;
2099;SDS011;1055;48.854;9.302;2023-02-28T12:46:09;12.65;;;8.68;;
2099;SDS011;1055;48.854;9.302;2023-02-28T12:48:43;15.10;;;10.32;;
2099;SDS011;1055;48.854;9.302;2023-02-28T12:51:20;14.88;;;10.80;;
2099;SDS011;1055;48.854;9.302;2023-02-28T12:54:23;13.80;;;9.77;;
2099;SDS011;1055;48.854;9.302;2023-02-28T12:56:43;13.85;;;10.63;;
2099;SDS011;1055;48.854;9.302;2023-02-28T12:59:35;14.38;;;9.68;;
2099;SDS011;1055;48.854;9.302;2023-02-28T13:08:17;14.52;;;9.20;;
2099;SDS011;1055;48.854;9.302;2023-02-28T13:11:06;16.27;;;10.25;;
2099;SDS011;1055;48.854;9.302;2023-02-28T13:13:32;14.55;;;9.07;;
2099;SDS011;1055;48.854;9.302;2023-02-28T13:18:38;14.60;;;9.80;;
2099;SDS011;1055;48.854;9.302;2023-02-28T13:21:08;15.38;;;10.05;;
2099;SDS011;1055;48.854;9.302;2023-02-28T13:34:30;13.88;;;9.60;;
2099;SDS011;1055;48.854;9.302;2023-02-28T13:39:54;15.40;;;9.77;;
2099;SDS011;1055;48.854;9.302;2023-02-28T13:45:19;12.80;;;9.00;;
2099;SDS011;1055;48.854;9.302;2023-02-28T13:58:46;15.60;;;10.32;;
2099;SDS011;1055;48.854;9.302;2023-02-28T14:04:02;12.95;;;9.88;;
2099;SDS011;1055;48.854;9.302;2023-02-28T14:06:37;12.80;;;9.07;;
2099;SDS011;1055;48.854;9.302;2023-02-28T14:11:51;14.05;;;9.90;;
2099;SDS011;1055;48.854;9.302;2023-02-28T14:17:16;13.52;;;9.77;;
2099;SDS011;1055;48.854;9.302;2023-02-28T14:19:45;14.70;;;9.27;;
2099;SDS011;1055;48.854;9.302;2023-02-28T14:25:08;15.80;;;9.40;;
2099;SDS011;1055;48.854;9.302;2023-02-28T14:30:43;12.85;;;9.80;;
2099;SDS011;1055;48.854;9.302;2023-02-28T14:38:36;11.48;;;9.32;;
2099;SDS011;1055;48.854;9.302;2023-02-28T14:41:15;14.02;;;10.30;;
2099;SDS011;1055;48.854;9.302;2023-02-28T14:43:52;15.82;;;9.73;;
2099;SDS011;1055;48.854;9.302;2023-02-28T14:46:20;14.75;;;9.80;;
2099;SDS011;1055;48.854;9.302;2023-02-28T14:48:48;13.20;;;8.70;;
2099;SDS011;1055;48.854;9.302;2023-02-28T14:51:18;14.93;;;10.90;;
2099;SDS011;1055;48.854;9.302;2023-02-28T14:53:47;14.73;;;10.05;;
2099;SDS011;1055;48.854;9.302;2023-02-28T14:56:19;16.02;;;10.82;;
2099;SDS011;1055;48.854;9.302;2023-02-28T14:58:56;16.63;;;12.35;;
2099;SDS011;1055;48.854;9.302;2023-02-28T15:01:23;15.57;;;10.55;;
2099;SDS011;1055;48.854;9.302;2023-02-28T15:03:56;13.95;;;10.15;;
2099;SDS011;1055;48.854;9.302;2023-02-28T15:06:28;14.68;;;10.10;;
2099;SDS011;1055;48.854;9.302;2023-02-28T15:09:08;15.10;;;9.43;;
2099;SDS011;1055;48.854;9.302;2023-02-28T15:11:36;15.35;;;11.10;;
2099;SDS011;1055;48.854;9.302;2023-02-28T15:14:12;15.25;;;10.90;;
2099;SDS011;1055;48.854;9.302;2023-02-28T15:16:46;14.63;;;10.25;;
2099;SDS011;1055;48.854;9.302;2023-02-28T15:19:20;15.00;;;10.25;;
2099;SDS011;1055;48.854;9.302;2023-02-28T15:21:53;14.95;;;10.60;;
2099;SDS011;1055;48.854;9.302;2023-02-28T15:27:12;14.35;;;10.05;;
2099;SDS011;1055;48.854;9.302;2023-02-28T15:29:44;14.88;;;10.48;;
2099;SDS011;1055;48.854;9.302;2023-02-28T15:32:21;16.15;;;10.68;;
2099;SDS011;1055;48.854;9.302;2023-02-28T15:34:49;26.27;;;17.77;;
2099;SDS011;1055;48.854;9.302;2023-02-28T15:40:13;15.40;;;10.65;;
2099;SDS011;1055;48.854;9.302;2023-02-28T15:45:51;15.52;;;10.85;;
2099;SDS011;1055;48.854;9.302;2023-02-28T15:48:21;14.50;;;10.73;;
2099;SDS011;1055;48.854;9.302;2023-02-28T15:54:20;14.32;;;9.45;;
2099;SDS011;1055;48.854;9.302;2023-02-28T15:56:53;15.07;;;10.15;;
2099;SDS011;1055;48.854;9.302;2023-02-28T15:59:27;15.15;;;10.75;;
2099;SDS011;1055;48.854;9.302;2023-02-28T16:04:56;14.90;;;9.35;;
2099;SDS011;1055;48.854;9.302;2023-02-28T16:07:33;15.25;;;10.63;;
2099;SDS011;1055;48.854;9.302;2023-02-28T16:10:07;15.40;;;9.80;;
2099;SDS011;1055;48.854;9.302;2023-02-28T16:12:38;15.13;;;10.95;;
2099;SDS011;1055;48.854;9.302;2023-02-28T16:15:32;13.85;;;9.95;;
2099;SDS011;1055;48.854;9.302;2023-02-28T16:18:00;12.77;;;10.40;;
2099;SDS011;1055;48.854;9.302;2023-02-28T16:20:29;17.67;;;11.40;;
2099;SDS011;1055;48.854;9.302;2023-02-28T16:22:56;18.02;;;11.80;;
2099;SDS011;1055;48.854;9.302;2023-02-28T16:25:34;15.90;;;10.60;;
2099;SDS011;1055;48.854;9.302;2023-02-28T16:28:03;14.18;;;9.98;;
2099;SDS011;1055;48.854;9.302;2023-02-28T16:30:57;14.77;;;10.25;;
2099;SDS011;1055;48.854;9.302;2023-02-28T16:33:33;16.67;;;11.10;;
2099;SDS011;1055;48.854;9.302;2023-02-28T16:36:02;16.17;;;11.45;;
2099;SDS011;1055;48.854;9.302;2023-02-28T16:38:27;16.35;;;11.60;;
2099;SDS011;1055;48.854;9.302;2023-02-28T16:41:00;14.45;;;10.15;;
2099;SDS011;1055;48.854;9.302;2023-02-28T16:43:26;17.52;;;10.60;;
2099;SDS011;1055;48.854;9.302;2023-02-28T16:45:57;15.73;;;10.75;;
2099;SDS011;1055;48.854;9.302;2023-02-28T16:48:24;15.48;;;11.20;;
2099;SDS011;1055;48.854;9.302;2023-02-28T16:50:54;14.88;;;10.32;;
2099;SDS011;1055;48.854;9.302;2023-02-28T16:53:26;18.50;;;10.85;;
2099;SDS011;1055;48.854;9.302;2023-02-28T16:55:52;15.50;;;11.60;;
2099;SDS011;1055;48.854;9.302;2023-02-28T16:58:17;15.38;;;10.50;;
2099;SDS011;1055;48.854;9.302;2023-02-28T17:00:47;17.02;;;12.18;;
2099;SDS011;1055;48.854;9.302;2023-02-28T17:03:33;16.75;;;11.20;;
2099;SDS011;1055;48.854;9.302;2023-02-28T17:06:04;16.88;;;12.05;;
2099;SDS011;1055;48.854;9.302;2023-02-28T17:08:33;17.13;;;12.48;;
2099;SDS011;1055;48.854;9.302;2023-02-28T17:11:02;21.25;;;12.98;;
2099;SDS011;1055;48.854;9.302;2023-02-28T17:13:33;16.50;;;11.50;;
2099;SDS011;1055;48.854;9.302;2023-02-28T17:16:05;34.72;;;23.90;;
2099;SDS011;1055;48.854;9.302;2023-02-28T17:18:39;35.72;;;23.70;;
2099;SDS011;1055;48.854;9.302;2023-02-28T17:21:09;43.58;;;27.17;;
2099;SDS011;1055;48.854;9.302;2023-02-28T17:23:39;32.15;;;22.13;;
2099;SDS011;1055;48.854;9.302;2023-02-28T17:26:12;33.70;;;23.55;;
2099;SDS011;1055;48.854;9.302;2023-02-28T17:28:42;19.80;;;14.98;;
2099;SDS011;1055;48.854;9.302;2023-02-28T17:31:13;19.35;;;13.80;;
2099;SDS011;1055;48.854;9.302;2023-02-28T17:33:40;20.90;;;12.57;;
2099;SDS011;1055;48.854;9.302;2023-02-28T17:36:13;19.10;;;12.50;;
2099;SDS011;1055;48.854;9.302;2023-02-28T17:38:44;19.85;;;12.10;;
2099;SDS011;1055;48.854;9.302;2023-02-28T17:41:10;20.75;;;12.13;;
2099;SDS011;1055;48.854;9.302;2023-02-28T17:43:41;18.52;;;11.85;;
2099;SDS011;1055;48.854;9.302;2023-02-28T17:46:46;16.58;;;11.30;;
2099;SDS011;1055;48.854;9.302;2023-02-28T17:49:05;20.27;;;12.93;;
2099;SDS011;1055;48.854;9.302;2023-02-28T17:51:34;24.58;;;12.75;;
2099;SDS011;1055;48.854;9.302;2023-02-28T17:54:04;19.48;;;13.18;;
2099;SDS011;1055;48.854;9.302;2023-02-28T17:56:33;17.25;;;12.32;;
2099;SDS011;1055;48.854;9.302;2023-02-28T17:59:06;17.27;;;10.82;;
2099;SDS011;1055;48.854;9.302;2023-02-28T18:01:36;21.42;;;12.45;;
2099;SDS011;1055;48.854;9.302;2023-02-28T18:04:02;20.60;;;13.70;;
2099;SDS011;1055;48.854;9.302;2023-02-28T18:06:38;17.45;;;12.88;;
2099;SDS011;1055;48.854;9.302;2023-02-28T18:09:18;20.48;;;13.18;;
2099;SDS011;1055;48.854;9.302;2023-02-28T18:11:49;22.17;;;14.38;;
2099;SDS011;1055;48.854;9.302;2023-02-28T18:14:23;24.17;;;12.85;;
2099;SDS011;1055;48.854;9.302;2023-02-28T18:16:52;19.40;;;12.15;;
2099;SDS011;1055;48.854;9.302;2023-02-28T18:19:31;19.80;;;13.32;;
2099;SDS011;1055;48.854;9.302;2023-02-28T18:22:04;18.90;;;13.68;;